createdAt,value
2023-04-18T00:00:37.939Z,1001.52
2023-04-18T00:01:37.931Z,1001.53
2023-04-18T00:02:38.010Z,1001.52
2023-04-18T00:03:38.197Z,1001.52
2023-04-18T00:04:37.924Z,1001.57
2023-04-18T00:05:37.949Z,1001.58
2023-04-18T00:06:37.831Z,1001.57
2023-04-18T00:07:37.822Z,1001.55
2023-04-18T00:08:37.814Z,1001.55
2023-04-18T00:09:38.792Z,1001.54
2023-04-18T00:10:37.802Z,1001.54
2023-04-18T00:11:37.760Z,1001.57
2023-04-18T00:12:37.742Z,1001.53
2023-04-18T00:13:37.731Z,1001.51
2023-04-18T00:14:37.747Z,1001.55
2023-04-18T00:15:37.728Z,1001.57
2023-04-18T00:16:37.756Z,1001.60
2023-04-18T00:17:37.728Z,1001.56
2023-04-18T00:18:37.756Z,1001.55
2023-04-18T00:19:37.654Z,1001.53
2023-04-18T00:20:37.692Z,1001.53
2023-04-18T00:21:37.629Z,1001.51
2023-04-18T00:22:37.615Z,1001.55
2023-04-18T00:23:37.615Z,1001.55
2023-04-18T00:24:37.613Z,1001.55
2023-04-18T00:25:37.619Z,1001.58
2023-04-18T00:26:37.569Z,1001.59
2023-04-18T00:27:37.562Z,1001.58
2023-04-18T00:28:37.543Z,1001.62
2023-04-18T00:29:37.544Z,1001.58
2023-04-18T00:30:37.579Z,1001.55
2023-04-18T00:31:37.500Z,1001.57
2023-04-18T00:32:37.544Z,1001.57
2023-04-18T00:33:37.475Z,1001.58
2023-04-18T00:34:37.465Z,1001.57
2023-04-18T00:35:37.490Z,1001.60
2023-04-18T00:36:37.434Z,1001.61
2023-04-18T00:37:37.460Z,1001.60
2023-04-18T00:38:37.407Z,1001.60
2023-04-18T00:39:37.391Z,1001.60
2023-04-18T00:40:37.427Z,1001.60
2023-04-18T00:41:37.375Z,1001.60
2023-04-18T00:42:37.364Z,1001.59
2023-04-18T00:43:37.338Z,1001.61
2023-04-18T00:44:37.331Z,1001.58
2023-04-18T00:45:37.348Z,1001.56
2023-04-18T00:46:37.356Z,1001.56
2023-04-18T00:47:37.337Z,1001.54
2023-04-18T00:48:37.280Z,1001.55
2023-04-18T00:49:37.273Z,1001.54
2023-04-18T00:50:37.302Z,1001.53
2023-04-18T00:51:37.238Z,1001.54
2023-04-18T00:52:37.237Z,1001.58
2023-04-18T00:53:37.207Z,1001.58
2023-04-18T00:54:37.206Z,1001.58
2023-04-18T00:55:37.206Z,1001.50
2023-04-18T00:56:37.190Z,1001.52
2023-04-18T00:57:37.172Z,1001.49
2023-04-18T00:58:37.157Z,1001.48
2023-04-18T00:59:37.126Z,1001.50
2023-04-18T01:00:37.165Z,1001.47
2023-04-18T01:01:37.120Z,1001.50
2023-04-18T01:02:37.180Z,1001.53
2023-04-18T01:03:37.254Z,1001.48
2023-04-18T01:04:37.144Z,1001.48
2023-04-18T01:05:37.081Z,1001.52
2023-04-18T01:06:37.342Z,1001.51
2023-04-18T01:07:37.026Z,1001.50
2023-04-18T01:08:37.027Z,1001.49
2023-04-18T01:09:37.001Z,1001.50
2023-04-18T01:10:37.019Z,1001.50
2023-04-18T01:11:36.978Z,1001.48
2023-04-18T01:12:36.972Z,1001.52
2023-04-18T01:13:36.943Z,1001.51
2023-04-18T01:14:36.971Z,1001.51
2023-04-18T01:15:37.099Z,1001.53
2023-04-18T01:16:37.016Z,1001.50
2023-04-18T01:17:36.936Z,1001.51
2023-04-18T01:18:36.902Z,1001.51
2023-04-18T01:19:36.879Z,1001.49
2023-04-18T01:20:36.895Z,1001.53
2023-04-18T01:21:36.847Z,1001.45
2023-04-18T01:22:36.849Z,1001.42
2023-04-18T01:23:36.817Z,1001.45
2023-04-18T01:24:36.812Z,1001.40
2023-04-18T01:25:36.814Z,1001.35
2023-04-18T01:26:36.799Z,1001.35
2023-04-18T01:27:36.759Z,1001.38
2023-04-18T01:28:36.797Z,1001.32
2023-04-18T01:29:38.879Z,1001.37
2023-04-18T01:30:36.764Z,1001.31
2023-04-18T01:31:36.742Z,1001.35
2023-04-18T01:32:36.741Z,1001.35
2023-04-18T01:33:36.680Z,1001.33
2023-04-18T01:34:36.672Z,1001.31
2023-04-18T01:35:36.688Z,1001.34
2023-04-18T01:36:36.647Z,1001.31
2023-04-18T01:37:36.637Z,1001.28
2023-04-18T01:38:36.621Z,1001.29
2023-04-18T01:39:36.606Z,1001.27
2023-04-18T01:40:36.633Z,1001.29
2023-04-18T01:41:36.588Z,1001.26
2023-04-18T01:42:36.564Z,1001.33
2023-04-18T01:43:36.552Z,1001.29
2023-04-18T01:44:36.553Z,1001.31
2023-04-18T01:45:36.553Z,1001.31
2023-04-18T01:46:36.620Z,1001.32
2023-04-18T01:47:36.632Z,1001.31
2023-04-18T01:48:36.499Z,1001.29
2023-04-18T01:49:36.476Z,1001.31
2023-04-18T01:50:36.574Z,1001.26
2023-04-18T01:51:36.448Z,1001.26
2023-04-18T01:52:36.433Z,1001.26
2023-04-18T01:53:36.421Z,1001.24
2023-04-18T01:54:36.423Z,1001.21
2023-04-18T01:55:36.435Z,1001.24
2023-04-18T01:56:36.405Z,1001.21
2023-04-18T01:57:36.366Z,1001.25
2023-04-18T01:58:36.365Z,1001.27
2023-04-18T01:59:36.350Z,1001.23
2023-04-18T02:00:36.381Z,1001.26
2023-04-18T02:01:36.331Z,1001.22
2023-04-18T02:02:36.441Z,1001.22
2023-04-18T02:03:36.454Z,1001.24
2023-04-18T02:04:36.276Z,1001.22
2023-04-18T02:05:36.312Z,1001.18
2023-04-18T02:06:36.250Z,1001.19
2023-04-18T02:07:36.253Z,1001.20
2023-04-18T02:08:36.262Z,1001.19
2023-04-18T02:09:36.220Z,1001.21
2023-04-18T02:10:36.250Z,1001.21
2023-04-18T02:11:36.200Z,1001.25
2023-04-18T02:12:36.167Z,1001.25
2023-04-18T02:13:36.168Z,1001.24
2023-04-18T02:14:36.163Z,1001.23
2023-04-18T02:15:36.162Z,1001.21
2023-04-18T02:16:36.159Z,1001.19
2023-04-18T02:17:36.143Z,1001.23
2023-04-18T02:18:36.096Z,1001.27
2023-04-18T02:19:36.102Z,1001.23
2023-04-18T02:20:36.130Z,1001.23
2023-04-18T02:21:36.062Z,1001.20
2023-04-18T02:22:36.034Z,1001.20
2023-04-18T02:23:36.030Z,1001.22
2023-04-18T02:24:36.018Z,1001.24
2023-04-18T02:25:36.048Z,1001.23
2023-04-18T02:26:36.001Z,1001.28
2023-04-18T02:27:35.988Z,1001.29
2023-04-18T02:28:35.969Z,1001.25
2023-04-18T02:29:35.990Z,1001.28
2023-04-18T02:30:35.966Z,1001.23
2023-04-18T02:31:36.001Z,1001.24
2023-04-18T02:32:35.930Z,1001.23
2023-04-18T02:33:35.909Z,1001.23
2023-04-18T02:34:35.884Z,1001.28
2023-04-18T02:35:35.916Z,1001.26
2023-04-18T02:36:35.863Z,1001.28
2023-04-18T02:37:35.859Z,1001.28
2023-04-18T02:38:35.828Z,1001.21
2023-04-18T02:39:35.834Z,1001.26
2023-04-18T02:40:35.828Z,1001.24
2023-04-18T02:41:35.798Z,1001.27
2023-04-18T02:42:35.790Z,1001.28
2023-04-18T02:43:35.773Z,1001.30
2023-04-18T02:44:35.798Z,1001.31
2023-04-18T02:45:35.818Z,1001.33
2023-04-18T02:46:35.746Z,1001.31
2023-04-18T02:47:46.953Z,1001.27
2023-04-18T02:48:36.703Z,1001.32
2023-04-18T02:49:35.704Z,1001.30
2023-04-18T02:50:35.717Z,1001.34
2023-04-18T02:51:36.620Z,1001.34
2023-04-18T02:52:35.658Z,1001.30
2023-04-18T02:53:36.598Z,1001.31
2023-04-18T02:54:35.621Z,1001.31
2023-04-18T02:55:35.633Z,1001.30
2023-04-18T02:56:35.603Z,1001.31
2023-04-18T02:57:35.574Z,1001.28
2023-04-18T02:58:35.580Z,1001.29
2023-04-18T02:59:35.561Z,1001.27
2023-04-18T03:00:35.580Z,1001.30
2023-04-18T03:01:35.547Z,1001.30
2023-04-18T03:02:35.649Z,1001.35
2023-04-18T03:03:35.656Z,1001.33
2023-04-18T03:04:35.562Z,1001.35
2023-04-18T03:05:35.509Z,1001.31
2023-04-18T03:06:35.479Z,1001.39
2023-04-18T03:07:35.442Z,1001.41
2023-04-18T03:08:35.581Z,1001.44
2023-04-18T03:09:35.426Z,1001.41
2023-04-18T03:10:35.458Z,1001.35
2023-04-18T03:11:35.396Z,1001.37
2023-04-18T03:12:35.417Z,1001.36
2023-04-18T03:13:35.413Z,1001.36
2023-04-18T03:14:35.373Z,1001.41
2023-04-18T03:15:35.426Z,1001.40
2023-04-18T03:16:35.340Z,1001.43
2023-04-18T03:17:35.343Z,1001.44
2023-04-18T03:18:35.328Z,1001.43
2023-04-18T03:19:35.287Z,1001.48
2023-04-18T03:20:35.323Z,1001.42
2023-04-18T03:21:35.295Z,1001.48
2023-04-18T03:22:35.270Z,1001.45
2023-04-18T03:23:35.231Z,1001.46
2023-04-18T03:24:35.261Z,1001.42
2023-04-18T03:25:35.252Z,1001.39
2023-04-18T03:26:35.215Z,1001.42
2023-04-18T03:27:35.185Z,1001.41
2023-04-18T03:28:35.381Z,1001.44
2023-04-18T03:29:35.166Z,1001.43
2023-04-18T03:30:35.183Z,1001.40
2023-04-18T03:31:35.194Z,1001.37
2023-04-18T03:32:35.234Z,1001.40
2023-04-18T03:33:35.106Z,1001.43
2023-04-18T03:34:35.100Z,1001.43
2023-04-18T03:35:35.108Z,1001.40
2023-04-18T03:36:35.078Z,1001.40
2023-04-18T03:37:35.045Z,1001.41
2023-04-18T03:38:35.046Z,1001.42
2023-04-18T03:39:35.348Z,1001.44
2023-04-18T03:40:35.472Z,1001.38
2023-04-18T03:41:35.001Z,1001.38
2023-04-18T03:42:35.005Z,1001.43
2023-04-18T03:43:35.017Z,1001.42
2023-04-18T03:44:35.120Z,1001.41
2023-04-18T03:45:35.688Z,1001.38
2023-04-18T03:46:35.097Z,1001.44
2023-04-18T03:47:34.960Z,1001.39
2023-04-18T03:48:34.922Z,1001.40
2023-04-18T03:49:35.088Z,1001.43
2023-04-18T03:50:34.915Z,1001.40
2023-04-18T03:51:34.861Z,1001.41
2023-04-18T03:52:34.904Z,1001.42
2023-04-18T03:53:35.005Z,1001.45
2023-04-18T03:54:34.800Z,1001.43
2023-04-18T03:55:34.804Z,1001.45
2023-04-18T03:56:34.913Z,1001.44
2023-04-18T03:57:34.738Z,1001.49
2023-04-18T03:58:34.784Z,1001.47
2023-04-18T03:59:34.784Z,1001.47
2023-04-18T04:00:34.745Z,1001.51
2023-04-18T04:01:34.715Z,1001.51
2023-04-18T04:02:34.830Z,1001.50
2023-04-18T04:03:34.726Z,1001.49
2023-04-18T04:04:34.689Z,1001.50
2023-04-18T04:05:34.711Z,1001.49
2023-04-18T04:06:34.648Z,1001.50
2023-04-18T04:07:34.610Z,1001.47
2023-04-18T04:08:34.598Z,1001.49
2023-04-18T04:09:34.583Z,1001.51
2023-04-18T04:10:34.588Z,1001.46
2023-04-18T04:11:34.587Z,1001.57
2023-04-18T04:12:34.552Z,1001.50
2023-04-18T04:13:34.536Z,1001.48
2023-04-18T04:14:34.533Z,1001.54
2023-04-18T04:15:34.523Z,1001.53
2023-04-18T04:16:34.550Z,1001.60
2023-04-18T04:17:34.515Z,1001.54
2023-04-18T04:18:34.505Z,1001.51
2023-04-18T04:19:34.479Z,1001.54
2023-04-18T04:20:34.446Z,1001.53
2023-04-18T04:21:34.590Z,1001.48
2023-04-18T04:22:34.416Z,1001.53
2023-04-18T04:23:34.457Z,1001.48
2023-04-18T04:24:34.393Z,1001.52
2023-04-18T04:25:34.388Z,1001.49
2023-04-18T04:26:34.408Z,1001.49
2023-04-18T04:27:34.364Z,1001.53
2023-04-18T04:28:34.346Z,1001.49
2023-04-18T04:29:34.329Z,1001.55
2023-04-18T04:30:34.358Z,1001.53
2023-04-18T04:31:35.138Z,1001.54
2023-04-18T04:32:34.316Z,1001.53
2023-04-18T04:33:34.277Z,1001.53
2023-04-18T04:34:34.319Z,1001.56
2023-04-18T04:35:34.265Z,1001.62
2023-04-18T04:36:34.269Z,1001.58
2023-04-18T04:37:34.222Z,1001.62
2023-04-18T04:38:34.211Z,1001.64
2023-04-18T04:39:34.187Z,1001.58
2023-04-18T04:40:34.179Z,1001.68
2023-04-18T04:41:34.198Z,1001.70
2023-04-18T04:42:34.157Z,1001.65
2023-04-18T04:43:34.147Z,1001.72
2023-04-18T04:44:34.175Z,1001.69
2023-04-18T04:45:34.187Z,1001.71
2023-04-18T04:46:34.141Z,1001.67
2023-04-18T04:47:34.167Z,1001.68
2023-04-18T04:48:34.078Z,1001.70
2023-04-18T04:49:34.063Z,1001.71
2023-04-18T04:50:34.056Z,1001.74
2023-04-18T04:51:34.049Z,1001.70
2023-04-18T04:52:34.053Z,1001.81
2023-04-18T04:53:34.005Z,1001.81
2023-04-18T04:54:34.000Z,1001.77
2023-04-18T04:55:33.989Z,1001.75
2023-04-18T04:56:34.009Z,1001.75
2023-04-18T04:57:33.958Z,1001.77
2023-04-18T04:58:34.903Z,1001.83
2023-04-18T04:59:34.063Z,1001.85
2023-04-18T05:00:33.936Z,1001.81
2023-04-18T05:01:34.002Z,1001.85
2023-04-18T05:02:34.093Z,1001.85
2023-04-18T05:03:34.932Z,1001.84
2023-04-18T05:04:34.196Z,1001.91
2023-04-18T05:05:33.917Z,1001.87
2023-04-18T05:06:33.938Z,1001.90
2023-04-18T05:07:34.548Z,1001.89
2023-04-18T05:08:33.899Z,1001.94
2023-04-18T05:09:33.809Z,1001.90
2023-04-18T05:10:33.797Z,1001.94
2023-04-18T05:11:33.820Z,1001.96
2023-04-18T05:12:33.763Z,1001.96
2023-04-18T05:13:33.774Z,1001.94
2023-04-18T05:14:33.742Z,1001.93
2023-04-18T05:15:33.749Z,1001.98
2023-04-18T05:16:33.811Z,1001.97
2023-04-18T05:17:33.730Z,1001.98
2023-04-18T05:18:35.031Z,1001.93
2023-04-18T05:19:33.667Z,1002.00
2023-04-18T05:20:33.693Z,1001.96
2023-04-18T05:21:33.631Z,1001.99
2023-04-18T05:22:33.642Z,1001.97
2023-04-18T05:23:33.609Z,1001.97
2023-04-18T05:24:33.598Z,1001.97
2023-04-18T05:25:33.632Z,1001.92
2023-04-18T05:26:33.591Z,1001.97
2023-04-18T05:27:33.558Z,1001.88
2023-04-18T05:28:33.552Z,1001.97
2023-04-18T05:29:33.529Z,1001.94
2023-04-18T05:30:33.570Z,1002.00
2023-04-18T05:31:33.561Z,1002.04
2023-04-18T05:32:33.540Z,1002.03
2023-04-18T05:33:33.485Z,1002.01
2023-04-18T05:34:33.479Z,1001.95
2023-04-18T05:35:33.503Z,1002.01
2023-04-18T05:36:33.452Z,1001.99
2023-04-18T05:37:33.448Z,1001.99
2023-04-18T05:38:33.418Z,1002.00
2023-04-18T05:39:33.414Z,1002.04
2023-04-18T05:40:33.426Z,1002.02
2023-04-18T05:41:33.382Z,1002.01
2023-04-18T05:42:33.379Z,1002.10
2023-04-18T05:43:33.352Z,1002.04
2023-04-18T05:44:33.342Z,1002.14
2023-04-18T05:45:33.376Z,1002.13
2023-04-18T05:46:33.323Z,1002.08
2023-04-18T05:47:33.373Z,1002.12
2023-04-18T05:48:33.302Z,1002.15
2023-04-18T05:49:33.279Z,1002.16
2023-04-18T05:50:33.300Z,1002.12
2023-04-18T05:51:33.235Z,1002.15
2023-04-18T05:52:33.256Z,1002.17
2023-04-18T05:53:33.226Z,1002.18
2023-04-18T05:54:33.226Z,1002.16
2023-04-18T05:55:33.221Z,1002.14
2023-04-18T05:56:33.197Z,1002.12
2023-04-18T05:57:33.174Z,1002.17
2023-04-18T05:58:33.157Z,1002.19
2023-04-18T05:59:33.147Z,1002.17
2023-04-18T06:00:33.166Z,1002.14
2023-04-18T06:01:33.111Z,1002.15
2023-04-18T06:02:33.213Z,1002.16
2023-04-18T06:03:33.336Z,1002.20
2023-04-18T06:04:33.336Z,1002.26
2023-04-18T06:05:33.310Z,1002.28
2023-04-18T06:06:33.048Z,1002.29
2023-04-18T06:07:33.037Z,1002.28
2023-04-18T06:08:33.028Z,1002.28
2023-04-18T06:09:33.008Z,1002.27
2023-04-18T06:10:33.044Z,1002.28
2023-04-18T06:11:32.993Z,1002.27
2023-04-18T06:12:32.987Z,1002.28
2023-04-18T06:13:32.954Z,1002.25
2023-04-18T06:14:32.950Z,1002.30
2023-04-18T06:15:32.971Z,1002.30
2023-04-18T06:16:32.981Z,1002.29
2023-04-18T06:17:32.931Z,1002.28
2023-04-18T06:18:32.908Z,1002.32
2023-04-18T06:19:32.882Z,1002.31
2023-04-18T06:20:32.896Z,1002.31
2023-04-18T06:21:32.847Z,1002.30
2023-04-18T06:22:32.839Z,1002.34
2023-04-18T06:23:32.820Z,1002.29
2023-04-18T06:24:33.050Z,1002.32
2023-04-18T06:25:32.839Z,1002.31
2023-04-18T06:26:32.801Z,1002.30
2023-04-18T06:27:32.792Z,1002.30
2023-04-18T06:28:32.761Z,1002.32
2023-04-18T06:29:32.746Z,1002.33
2023-04-18T06:30:32.771Z,1002.30
2023-04-18T06:31:32.731Z,1002.38
2023-04-18T06:32:32.769Z,1002.41
2023-04-18T06:33:32.700Z,1002.36
2023-04-18T06:34:32.693Z,1002.42
2023-04-18T06:35:32.704Z,1002.39
2023-04-18T06:36:32.650Z,1002.38
2023-04-18T06:37:33.433Z,1002.47
2023-04-18T06:38:33.169Z,1002.46
2023-04-18T06:39:32.615Z,1002.47
2023-04-18T06:40:32.636Z,1002.47
2023-04-18T06:41:32.600Z,1002.48
2023-04-18T06:42:32.593Z,1002.43
2023-04-18T06:43:32.741Z,1002.45
2023-04-18T06:44:32.572Z,1002.43
2023-04-18T06:45:32.683Z,1002.45
2023-04-18T06:46:32.540Z,1002.47
2023-04-18T06:47:32.801Z,1002.47
2023-04-18T06:48:32.502Z,1002.46
2023-04-18T06:49:32.492Z,1002.48
2023-04-18T06:50:32.471Z,1002.52
2023-04-18T06:51:32.485Z,1002.50
2023-04-18T06:52:32.448Z,1002.58
2023-04-18T06:53:32.427Z,1002.55
2023-04-18T06:54:32.419Z,1002.53
2023-04-18T06:55:32.437Z,1002.51
2023-04-18T06:56:34.383Z,1002.53
2023-04-18T06:57:32.398Z,1002.52
2023-04-18T06:58:32.377Z,1002.54
2023-04-18T06:59:32.393Z,1002.55
2023-04-18T07:00:32.356Z,1002.60
2023-04-18T07:01:32.442Z,1002.61
2023-04-18T07:02:32.414Z,1002.57
2023-04-18T07:03:32.362Z,1002.54
2023-04-18T07:04:32.309Z,1002.56
2023-04-18T07:05:32.304Z,1002.59
2023-04-18T07:06:32.288Z,1002.62
2023-04-18T07:07:32.274Z,1002.57
2023-04-18T07:08:32.247Z,1002.59
2023-04-18T07:09:32.429Z,1002.58
2023-04-18T07:10:33.082Z,1002.58
2023-04-18T07:11:32.391Z,1002.59
2023-04-18T07:12:32.181Z,1002.59
2023-04-18T07:13:32.182Z,1002.59
2023-04-18T07:14:34.096Z,1002.60
2023-04-18T07:15:32.156Z,1002.64
2023-04-18T07:16:32.216Z,1002.62
2023-04-18T07:17:32.164Z,1002.62
2023-04-18T07:18:38.008Z,1002.60
2023-04-18T07:19:33.088Z,1002.71
2023-04-18T07:20:32.075Z,1002.70
2023-04-18T07:21:32.097Z,1002.71
2023-04-18T07:22:32.061Z,1002.70
2023-04-18T07:23:32.143Z,1002.66
2023-04-18T07:24:32.020Z,1002.62
2023-04-18T07:25:32.041Z,1002.69
2023-04-18T07:26:32.042Z,1002.71
2023-04-18T07:27:32.005Z,1002.75
2023-04-18T07:28:31.969Z,1002.69
2023-04-18T07:29:31.957Z,1002.67
2023-04-18T07:30:31.943Z,1002.66
2023-04-18T07:31:32.034Z,1002.70
2023-04-18T07:32:32.007Z,1002.68
2023-04-18T07:33:31.950Z,1002.69
2023-04-18T07:34:31.887Z,1002.75
2023-04-18T07:35:31.887Z,1002.71
2023-04-18T07:36:31.909Z,1002.71
2023-04-18T07:37:31.857Z,1002.71
2023-04-18T07:38:31.848Z,1002.71
2023-04-18T07:39:31.886Z,1002.74
2023-04-18T07:40:31.819Z,1002.70
2023-04-18T07:41:31.844Z,1002.70
2023-04-18T07:42:31.799Z,1002.76
2023-04-18T07:43:31.797Z,1002.75
2023-04-18T07:44:31.768Z,1002.72
2023-04-18T07:45:31.760Z,1002.78
2023-04-18T07:46:31.813Z,1002.78
2023-04-18T07:47:32.907Z,1002.78
2023-04-18T07:48:31.716Z,1002.75
2023-04-18T07:49:31.697Z,1002.76
2023-04-18T07:50:31.761Z,1002.73
2023-04-18T07:51:31.716Z,1002.76
2023-04-18T07:52:31.661Z,1002.77
2023-04-18T07:53:31.650Z,1002.68
2023-04-18T07:54:31.638Z,1002.68
2023-04-18T07:55:31.663Z,1002.67
2023-04-18T07:56:31.640Z,1002.68
2023-04-18T07:57:31.602Z,1002.64
2023-04-18T07:58:31.581Z,1002.69
2023-04-18T07:59:31.574Z,1002.73
2023-04-18T08:00:31.569Z,1002.71
2023-04-18T08:01:31.611Z,1002.77
2023-04-18T08:02:31.639Z,1002.75
2023-04-18T08:03:31.582Z,1002.80
2023-04-18T08:04:31.626Z,1002.80
2023-04-18T08:05:31.513Z,1002.79
2023-04-18T08:06:31.506Z,1002.77
2023-04-18T08:07:31.478Z,1002.81
2023-04-18T08:08:31.457Z,1002.86
2023-04-18T08:09:31.470Z,1002.83
2023-04-18T08:10:31.430Z,1002.77
2023-04-18T08:11:31.442Z,1002.76
2023-04-18T08:12:31.398Z,1002.79
2023-04-18T08:13:31.404Z,1002.77
2023-04-18T08:14:31.370Z,1002.84
2023-04-18T08:15:31.359Z,1002.82
2023-04-18T08:16:31.448Z,1002.85
2023-04-18T08:17:31.350Z,1002.85
2023-04-18T08:18:31.328Z,1002.85
2023-04-18T08:19:31.312Z,1002.87
2023-04-18T08:20:31.287Z,1002.84
2023-04-18T08:21:31.311Z,1002.82
2023-04-18T08:22:31.266Z,1002.84
2023-04-18T08:23:31.285Z,1002.83
2023-04-18T08:24:31.308Z,1002.86
2023-04-18T08:25:31.240Z,1002.87
2023-04-18T08:26:31.236Z,1002.90
2023-04-18T08:27:31.200Z,1002.93
2023-04-18T08:28:31.189Z,1002.92
2023-04-18T08:29:31.178Z,1002.86
2023-04-18T08:30:31.305Z,1002.88
2023-04-18T08:31:31.211Z,1002.92
2023-04-18T08:32:31.154Z,1002.96
2023-04-18T08:33:31.131Z,1002.95
2023-04-18T08:34:31.112Z,1002.93
2023-04-18T08:35:31.146Z,1002.94
2023-04-18T08:36:31.119Z,1002.95
2023-04-18T08:37:31.095Z,1002.95
2023-04-18T08:38:31.055Z,1002.98
2023-04-18T08:39:31.054Z,1002.94
2023-04-18T08:40:31.055Z,1002.94
2023-04-18T08:41:31.130Z,1002.93
2023-04-18T08:42:31.002Z,1002.96
2023-04-18T08:43:30.998Z,1002.97
2023-04-18T08:44:31.141Z,1002.94
2023-04-18T08:45:30.985Z,1002.93
2023-04-18T08:46:30.965Z,1002.98
2023-04-18T08:47:30.953Z,1003.04
2023-04-18T08:48:30.925Z,1002.98
2023-04-18T08:49:30.928Z,1002.99
2023-04-18T08:50:30.938Z,1002.99
2023-04-18T08:51:30.912Z,1003.03
2023-04-18T08:52:30.883Z,1003.02
2023-04-18T08:53:30.854Z,1003.01
2023-04-18T08:54:30.845Z,1003.01
2023-04-18T08:55:30.833Z,1003.00
2023-04-18T08:56:30.844Z,1003.04
2023-04-18T08:57:30.816Z,1003.05
2023-04-18T08:58:30.789Z,1003.04
2023-04-18T08:59:30.786Z,1003.07
2023-04-18T09:00:30.753Z,1003.06
2023-04-18T09:01:30.797Z,1003.05
2023-04-18T09:02:30.768Z,1003.02
2023-04-18T09:03:30.745Z,1003.02
2023-04-18T09:04:30.763Z,1003.01
2023-04-18T09:05:30.715Z,1003.05
2023-04-18T09:06:30.705Z,1003.05
2023-04-18T09:07:30.673Z,1003.06
2023-04-18T09:08:30.654Z,1003.05
2023-04-18T09:09:30.656Z,1003.04
2023-04-18T09:10:30.639Z,1003.06
2023-04-18T09:11:30.644Z,1003.06
2023-04-18T09:12:30.601Z,1003.05
2023-04-18T09:13:30.596Z,1003.08
2023-04-18T09:14:30.570Z,1003.13
2023-04-18T09:15:30.570Z,1003.09
2023-04-18T09:16:30.625Z,1003.07
2023-04-18T09:17:30.548Z,1003.04
2023-04-18T09:18:30.521Z,1003.10
2023-04-18T09:19:30.536Z,1003.09
2023-04-18T09:20:30.495Z,1003.11
2023-04-18T09:21:30.523Z,1003.11
2023-04-18T09:22:30.473Z,1003.08
2023-04-18T09:23:30.475Z,1003.08
2023-04-18T09:24:30.461Z,1003.10
2023-04-18T09:25:30.460Z,1003.06
2023-04-18T09:26:30.446Z,1003.09
2023-04-18T09:27:30.405Z,1003.02
2023-04-18T09:28:30.425Z,1003.06
2023-04-18T09:29:30.394Z,1003.01
2023-04-18T09:30:30.372Z,1003.02
2023-04-18T09:31:30.524Z,1003.02
2023-04-18T09:32:30.394Z,1003.04
2023-04-18T09:33:30.347Z,1003.06
2023-04-18T09:34:30.310Z,1003.02
2023-04-18T09:35:30.352Z,1003.02
2023-04-18T09:36:30.319Z,1003.09
2023-04-18T09:37:30.303Z,1003.00
2023-04-18T09:38:30.270Z,1002.99
2023-04-18T09:39:30.254Z,1002.97
2023-04-18T09:40:30.235Z,1002.92
2023-04-18T09:41:30.229Z,1002.95
2023-04-18T09:42:30.234Z,1002.95
2023-04-18T09:43:30.997Z,1002.99
2023-04-18T09:44:30.194Z,1002.94
2023-04-18T09:45:30.182Z,1002.93
2023-04-18T09:46:30.179Z,1002.93
2023-04-18T09:47:30.229Z,1002.94
2023-04-18T09:48:30.125Z,1003.02
2023-04-18T09:49:30.126Z,1002.95
2023-04-18T09:50:30.107Z,1002.93
2023-04-18T09:51:30.096Z,1002.97
2023-04-18T09:52:30.094Z,1002.98
2023-04-18T09:53:30.065Z,1002.94
2023-04-18T09:54:30.056Z,1002.96
2023-04-18T09:55:30.054Z,1002.98
2023-04-18T09:56:30.017Z,1002.99
2023-04-18T09:57:30.080Z,1003.00
2023-04-18T09:58:29.993Z,1002.98
2023-04-18T09:59:29.991Z,1002.95
2023-04-18T10:00:29.975Z,1002.95
2023-04-18T10:01:29.994Z,1002.94
2023-04-18T10:02:30.083Z,1002.93
2023-04-18T10:03:30.016Z,1002.95
2023-04-18T10:04:30.029Z,1002.96
2023-04-18T10:05:29.912Z,1002.93
2023-04-18T10:06:29.904Z,1002.94
2023-04-18T10:07:29.918Z,1002.96
2023-04-18T10:08:29.860Z,1002.95
2023-04-18T10:09:29.855Z,1002.97
2023-04-18T10:10:29.838Z,1002.97
2023-04-18T10:11:29.840Z,1002.90
2023-04-18T10:12:29.847Z,1002.92
2023-04-18T10:13:29.809Z,1002.94
2023-04-18T10:14:29.780Z,1002.95
2023-04-18T10:15:29.771Z,1002.98
2023-04-18T10:16:29.785Z,1002.96
2023-04-18T10:17:29.946Z,1002.99
2023-04-18T10:18:29.786Z,1002.98
2023-04-18T10:19:29.747Z,1002.95
2023-04-18T10:20:29.706Z,1002.93
2023-04-18T10:21:29.692Z,1002.94
2023-04-18T10:22:29.744Z,1002.97
2023-04-18T10:23:29.671Z,1002.95
2023-04-18T10:24:29.650Z,1002.93
2023-04-18T10:25:29.632Z,1002.95
2023-04-18T10:26:29.624Z,1002.92
2023-04-18T10:27:29.664Z,1002.88
2023-04-18T10:28:29.596Z,1002.89
2023-04-18T10:29:29.599Z,1002.86
2023-04-18T10:30:29.563Z,1002.85
2023-04-18T10:31:29.677Z,1002.87
2023-04-18T10:32:29.604Z,1002.90
2023-04-18T10:33:32.296Z,1002.91
2023-04-18T10:34:29.598Z,1002.88
2023-04-18T10:35:29.536Z,1002.88
2023-04-18T10:36:29.485Z,1002.86
2023-04-18T10:37:29.507Z,1002.90
2023-04-18T10:38:29.479Z,1002.86
2023-04-18T10:39:29.454Z,1002.90
2023-04-18T10:40:29.432Z,1002.84
2023-04-18T10:41:29.432Z,1002.81
2023-04-18T10:42:29.432Z,1002.74
2023-04-18T10:43:29.403Z,1002.74
2023-04-18T10:44:29.380Z,1002.73
2023-04-18T10:45:29.376Z,1002.70
2023-04-18T10:46:32.213Z,1002.66
2023-04-18T10:47:29.425Z,1002.73
2023-04-18T10:48:29.351Z,1002.74
2023-04-18T10:49:32.079Z,1002.76
2023-04-18T10:50:29.291Z,1002.76
2023-04-18T10:51:29.326Z,1002.69
2023-04-18T10:52:29.300Z,1002.70
2023-04-18T10:53:29.270Z,1002.71
2023-04-18T10:54:29.268Z,1002.70
2023-04-18T10:55:29.297Z,1002.70
2023-04-18T10:56:29.221Z,1002.72
2023-04-18T10:57:29.247Z,1002.69
2023-04-18T10:58:29.209Z,1002.72
2023-04-18T10:59:29.188Z,1002.70
2023-04-18T11:00:29.173Z,1002.69
2023-04-18T11:01:32.150Z,1002.80
2023-04-18T11:02:29.296Z,1002.77
2023-04-18T11:03:29.154Z,1002.70
2023-04-18T11:04:29.301Z,1002.75
2023-04-18T11:05:29.113Z,1002.64
2023-04-18T11:06:29.127Z,1002.64
2023-04-18T11:07:30.054Z,1002.64
2023-04-18T11:08:29.172Z,1002.62
2023-04-18T11:09:29.087Z,1002.63
2023-04-18T11:10:29.041Z,1002.65
2023-04-18T11:11:29.039Z,1002.65
2023-04-18T11:12:29.040Z,1002.70
2023-04-18T11:13:29.007Z,1002.72
2023-04-18T11:14:28.985Z,1002.65
2023-04-18T11:15:30.839Z,1002.63
2023-04-18T11:16:28.971Z,1002.63
2023-04-18T11:17:29.019Z,1002.70
2023-04-18T11:18:28.927Z,1002.63
2023-04-18T11:19:28.922Z,1002.68
2023-04-18T11:20:28.898Z,1002.62
2023-04-18T11:21:30.626Z,1002.73
2023-04-18T11:22:28.912Z,1002.70
2023-04-18T11:23:28.875Z,1002.67
2023-04-18T11:24:28.855Z,1002.65
2023-04-18T11:25:28.843Z,1002.65
2023-04-18T11:26:28.824Z,1002.75
2023-04-18T11:27:28.830Z,1002.68
2023-04-18T11:28:28.806Z,1002.65
2023-04-18T11:29:28.766Z,1002.59
2023-04-18T11:30:28.769Z,1002.60
2023-04-18T11:31:28.801Z,1002.67
2023-04-18T11:32:28.848Z,1002.74
2023-04-18T11:33:28.734Z,1002.70
2023-04-18T11:34:28.729Z,1002.65
2023-04-18T11:35:28.766Z,1002.68
2023-04-18T11:36:28.780Z,1002.66
2023-04-18T11:37:28.809Z,1002.61
2023-04-18T11:38:28.750Z,1002.59
2023-04-18T11:39:28.839Z,1002.54
2023-04-18T11:40:28.639Z,1002.55
2023-04-18T11:41:28.626Z,1002.55
2023-04-18T11:42:28.643Z,1002.54
2023-04-18T11:43:28.610Z,1002.52
2023-04-18T11:44:28.577Z,1002.56
2023-04-18T11:45:28.572Z,1002.57
2023-04-18T11:46:28.594Z,1002.54
2023-04-18T11:47:28.620Z,1002.54
2023-04-18T11:48:28.528Z,1002.54
2023-04-18T11:49:28.526Z,1002.60
2023-04-18T11:50:28.506Z,1002.55
2023-04-18T11:51:28.484Z,1002.64
2023-04-18T11:52:28.525Z,1002.62
2023-04-18T11:53:28.461Z,1002.62
2023-04-18T11:54:28.646Z,1002.59
2023-04-18T11:55:28.438Z,1002.54
2023-04-18T11:56:29.063Z,1002.61
2023-04-18T11:57:28.446Z,1002.67
2023-04-18T11:58:28.423Z,1002.62
2023-04-18T11:59:29.325Z,1002.64
2023-04-18T12:00:28.382Z,1002.64
2023-04-18T12:01:28.385Z,1002.60
2023-04-18T12:02:28.505Z,1002.59
2023-04-18T12:03:28.508Z,1002.62
2023-04-18T12:04:28.466Z,1002.60
2023-04-18T12:05:28.434Z,1002.63